Terminal Aerodrome Forecast
Issued by NWS

Home | Current Version | Previous Version | Text Only | Print | Product List | Glossary On
Versions: 1 2 3 4 5 6 7 8 9 10 11 12 13 14 15 16 17 18
000
FTUS42 KJAX 290926 AAB
TAFVQQ
TAF AMD
KVQQ 290926Z 2909/3006 00000KT 1/2SM FG OVC002
     FM291300 30002KT 6SM BR FEW005 BKN009
     FM291400 30006KT P6SM FEW050 SCT250
     FM292200 17007KT P6SM SCT050=

USA.gov is the U.S. government's official web portal to all federal, state and local government web resources and services.